• LFSB

    METAR de LFSB (émis le 2021/03/02 22:00 UTC):
    LFSB 022200Z AUTO 24002KT 9000 NSC 04/02 Q1031 NOSIG

    TAF de LFSB (émis le 2021/03/02 18:21 UTC):
    LFSB 021700Z 0218/0318 35003KT CAVOK PROB30 TEMPO 0300/0306 4000 BR
  • LFSX

    METAR de LFSX (émis le 2021/03/02 22:00 UTC):
    LFSX 022200Z AUTO 12001KT CAVOK 06/02 Q1031

    TAF de LFSX (émis le 2021/03/02 21:38 UTC):
    LFSX 022000Z 0221/0321 VRB02KT CAVOK
  • LFSD

    METAR de LFSD (émis le 2021/03/02 22:00 UTC):
    LFSD 022200Z AUTO VRB02KT CAVOK 07/00 Q1030

    TAF de LFSD (émis le 2015/06/01 00:11 UTC):
    LFSD 010600Z 0100/0124 CNL
  • LFGJ

    METAR de LFGJ (émis le 2021/03/02 22:00 UTC):
    LFGJ 022200Z AUTO 09004KT CAVOK 06/03 Q1030

    TAF COURT de LFGJ
    (émis le 2021/03/02 17:03 UTC):
    TAF LFGJ 021800Z 0217/0224 CNL
  • LFJL

    METAR de LFJL (émis le 2021/03/02 22:00 UTC):
    LFJL 022200Z AUTO VRB02KT 9000 NSC 07/01 Q1030 NOSIG

    TAF de LFJL (émis le 2021/03/02 18:21 UTC):
    LFJL 021700Z 0218/0318 12007KT CAVOK
  • LFST

    METAR de LFST (émis le 2021/03/02 22:00 UTC):
    LFST 022200Z AUTO 00000KT CAVOK 03/01 Q1031 TEMPO 3000 BR

    TAF de LFST (émis le 2021/03/02 18:21 UTC):
    LFST 021700Z 0218/0318 VRB04KT CAVOK PROB40 TEMPO 0222/0307 3000 BR PROB30 TEMPO 0302/0307 0300 FG VV///